Cardinal — LM6682 — position and weather

sailwx.info

Track history (hours):
 
Tides and Currents Weather Stations Pressure Air Temp Water Temp Dewpoint Dewpoint Depression Visibility Wind Speed Wind Dir Waves Ship Positions

Cardinal

Last reported at 2018-Apr-06 11:16 UTC. Time now 2018-Apr-22 18:13 UTC.
Position N 69°47' E 019°02'.
Warning: this ship's position is 16 days out of date.

Length 13 m.

Type: Fishing. MMSI: 257345720.

Date/timePositionNaut miles runAvg speedWind from/ knotsBaromVisibWave heightAir tempDewpointWater temp
2018-Apr-06 11:16N 69°47' E 019°02'2 8.0
2018-Apr-06 10:59N 69°45' E 019°03'4 8.5
2018-Apr-06 10:29N 69°41' E 019°01'1 2.1
2018-Apr-06 09:59N 69°40' E 018°59'1 1.3
2018-Apr-06 09:28N 69°39' E 018°58'0 0.0
2018-Apr-06 08:58N 69°39' E 018°58'0 0.0
2018-Apr-06 08:28N 69°39' E 018°58'0 0.0
2018-Apr-06 07:58N 69°39' E 018°58'0 0.0
2018-Apr-06 07:28N 69°39' E 018°58'0 0.0
2018-Apr-06 06:58N 69°39' E 018°58'0 0.0
2018-Apr-06 06:28N 69°39' E 018°58'0 0.0
2018-Apr-06 05:58N 69°39' E 018°58'0 0.0
2018-Apr-06 05:28N 69°39' E 018°58'0 0.1
2018-Apr-06 05:00N 69°40' E 018°59'4 7.9
2018-Apr-06 04:30N 69°43' E 019°03'  
Track history (hours):
 
Tides and Currents Weather Stations Pressure Air Temp Water Temp Dewpoint Dewpoint Depression Visibility Wind Speed Wind Dir Waves Ship Positions

Cardinal

Last reported at 2018-Apr-06 11:16 UTC. Time now 2018-Apr-22 18:13 UTC.
Position N 69°47' E 019°02'.
Warning: this ship's position is 16 days out of date.

Length 13 m.

Type: Fishing. MMSI: 257345720.

Date/timePositionNaut miles runAvg speedWind from/ knotsBaromVisibWave heightAir tempDewpointWater temp
2018-Apr-06 11:16N 69°47' E 019°02'2 8.0
2018-Apr-06 10:59N 69°45' E 019°03'4 8.5
2018-Apr-06 10:29N 69°41' E 019°01'1 2.1
2018-Apr-06 09:59N 69°40' E 018°59'1 1.3
2018-Apr-06 09:28N 69°39' E 018°58'0 0.0
2018-Apr-06 08:58N 69°39' E 018°58'0 0.0
2018-Apr-06 08:28N 69°39' E 018°58'0 0.0
2018-Apr-06 07:58N 69°39' E 018°58'0 0.0
2018-Apr-06 07:28N 69°39' E 018°58'0 0.0
2018-Apr-06 06:58N 69°39' E 018°58'0 0.0
2018-Apr-06 06:28N 69°39' E 018°58'0 0.0
2018-Apr-06 05:58N 69°39' E 018°58'0 0.0
2018-Apr-06 05:28N 69°39' E 018°58'0 0.1
2018-Apr-06 05:00N 69°40' E 018°59'4 7.9
2018-Apr-06 04:30N 69°43' E 019°03'  

Dump ship's entire track history